Time;durP1;ratioP1;P1;durP2;ratioP2;P2;SDS_P1;SDS_P2;PMS_P1;PMS_P2;Temp;Humidity;BMP_temperature;BMP_pressure;BME280_temperature;BME280_humidity;BME280_pressure;Samples;Min_cycle;Max_cycle;Signal;HPM_P1;HPM_P2
2024/01/20 00:00:18;;;;;;;;;;;0.10;99.90;;;;;;5022622;28;20023;-62
2024/01/20 00:02:43;;;;;;;;;;;0.20;99.90;;;;;;5022123;28;19958;-62
2024/01/20 00:05:09;;;;;;;;;;;0.20;99.90;;;;;;5022751;28;19913;-62
2024/01/20 00:07:35;;;;;;;;;;;0.10;99.90;;;;;;5087219;28;20437;-62
2024/01/20 00:10:00;;;;;;;;;;;0.10;99.90;;;;;;5022317;28;19948;-62
2024/01/20 00:12:26;;;;;;;;;;;0.10;99.90;;;;;;5022620;28;20317;-62
2024/01/20 00:14:52;;;;;;;;;;;0.10;99.90;;;;;;5021607;28;20028;-62
2024/01/20 00:17:17;;;;;;;;;;;0.10;99.90;;;;;;5022518;28;19916;-62
2024/01/20 00:19:43;;;;;;;;;;;0.10;99.90;;;;;;5015436;28;19910;-62
2024/01/20 00:22:08;;;;;;;;;;;0.10;99.90;;;;;;5021795;28;19913;-62
2024/01/20 00:24:34;;;;;;;;;;;0.10;99.90;;;;;;5021925;28;19913;-62
2024/01/20 00:26:59;;;;;;;;;;;0.10;99.90;;;;;;5021979;28;19917;-62
2024/01/20 00:29:25;;;;;;;;;;;0.10;99.90;;;;;;5022151;28;19985;-62
2024/01/20 00:31:50;;;;;;;;;;;0.10;99.90;;;;;;5046508;28;20633;-62
2024/01/20 00:34:16;;;;;;;;;;;0.00;99.90;;;;;;5022326;28;19917;-62
2024/01/20 00:36:41;;;;;;;;;;;0.00;99.90;;;;;;5022362;28;19914;-62
2024/01/20 00:39:07;;;;;;;;;;;0.00;99.90;;;;;;5021653;28;19909;-62
2024/01/20 00:41:33;;;;;;;;;;;0.00;99.90;;;;;;5022071;28;19936;-62
2024/01/20 00:43:58;;;;;;;;;;;0.00;99.90;;;;;;5021752;28;20058;-62
2024/01/20 00:46:24;;;;;;;;;;;0.00;99.90;;;;;;5036043;28;20290;-62
2024/01/20 00:48:49;;;;;;;;;;;0.00;99.90;;;;;;5024344;28;19921;-62
2024/01/20 00:51:15;;;;;;;;;;;0.00;99.90;;;;;;5021771;28;19954;-62
2024/01/20 00:53:40;;;;;;;;;;;0.00;99.90;;;;;;5017808;28;20149;-62
2024/01/20 00:56:07;;;;;;;;;;;0.00;99.90;;;;;;5032060;28;19920;-62
2024/01/20 00:58:32;;;;;;;;;;;-0.10;99.90;;;;;;5027049;28;19929;-62
2024/01/20 01:00:58;;;;;;;;;;;0.00;99.90;;;;;;5021347;28;20259;-62
2024/01/20 01:03:23;;;;;;;;;;;0.00;99.90;;;;;;5022168;28;19914;-62
2024/01/20 01:05:49;;;;;;;;;;;-0.10;99.90;;;;;;5029682;28;20392;-63
2024/01/20 01:08:14;;;;;;;;;;;-0.10;99.90;;;;;;5044997;28;19965;-62
2024/01/20 01:10:41;;;;;;;;;;;-0.10;99.90;;;;;;5025796;28;20050;-62
2024/01/20 01:13:06;;;;;;;;;;;-0.10;99.90;;;;;;5021733;28;19914;-62
2024/01/20 01:15:32;;;;;;;;;;;-0.10;99.90;;;;;;5073140;28;20366;-63
2024/01/20 01:17:57;;;;;;;;;;;-0.10;99.90;;;;;;5021621;28;19909;-62
2024/01/20 01:20:23;;;;;;;;;;;-0.10;99.90;;;;;;5021822;28;19913;-62
2024/01/20 01:22:50;;;;;;;;;;;0.00;99.90;;;;;;5021576;28;19913;-62
2024/01/20 01:25:16;;;;;;;;;;;-0.10;99.90;;;;;;5021883;28;19913;-62
2024/01/20 01:27:42;;;;;;;;;;;-0.10;99.90;;;;;;5023949;28;19985;-62
2024/01/20 01:30:07;;;;;;;;;;;-0.10;99.90;;;;;;5024824;28;19925;-63
2024/01/20 01:32:33;;;;;;;;;;;-0.10;99.90;;;;;;5024983;28;19913;-62
2024/01/20 01:34:58;;;;;;;;;;;-0.10;99.90;;;;;;5024907;28;19917;-62
2024/01/20 01:37:24;;;;;;;;;;;-0.10;99.90;;;;;;5025359;28;19920;-62
2024/01/20 01:39:49;;;;;;;;;;;-0.10;99.90;;;;;;5024638;28;19936;-62
2024/01/20 01:42:15;;;;;;;;;;;-0.10;99.90;;;;;;5024895;28;19921;-62
2024/01/20 01:44:40;;;;;;;;;;;-0.10;99.90;;;;;;5024885;28;19913;-62
2024/01/20 01:47:06;;;;;;;;;;;-0.10;99.90;;;;;;5024585;28;19917;-62
2024/01/20 01:49:32;;;;;;;;;;;-0.20;99.90;;;;;;5024885;28;19920;-62
2024/01/20 01:51:57;;;;;;;;;;;-0.10;99.90;;;;;;5024549;28;20326;-62
2024/01/20 01:54:24;;;;;;;;;;;-0.10;99.90;;;;;;5024624;28;19909;-62
2024/01/20 01:56:50;;;;;;;;;;;-0.10;99.90;;;;;;5024691;28;19929;-62
2024/01/20 01:59:16;;;;;;;;;;;-0.20;99.90;;;;;;5024644;28;19913;-62
2024/01/20 02:01:41;;;;;;;;;;;-0.20;99.90;;;;;;5024654;28;19920;-62
2024/01/20 02:04:07;;;;;;;;;;;-0.20;99.90;;;;;;5024716;28;19910;-62
2024/01/20 02:06:33;;;;;;;;;;;-0.20;99.90;;;;;;5028343;28;20572;-62
2024/01/20 02:08:58;;;;;;;;;;;-0.20;99.90;;;;;;5024341;28;20016;-62
2024/01/20 02:11:25;;;;;;;;;;;-0.20;99.90;;;;;;5024642;28;20319;-62
2024/01/20 02:13:50;;;;;;;;;;;-0.20;99.90;;;;;;5024388;28;19913;-62
2024/01/20 02:16:16;;;;;;;;;;;-0.20;99.90;;;;;;5024699;28;19972;-62
2024/01/20 02:18:41;;;;;;;;;;;-0.20;99.90;;;;;;5017497;28;19947;-62
2024/01/20 02:21:07;;;;;;;;;;;-0.20;99.90;;;;;;5023633;28;20004;-62
2024/01/20 02:23:36;;;;;;;;;;;-0.20;99.90;;;;;;5024504;28;19916;-62
2024/01/20 02:26:02;;;;;;;;;;;-0.20;99.90;;;;;;5024088;28;20129;-62
2024/01/20 02:28:27;;;;;;;;;;;-0.20;99.90;;;;;;5024581;28;20437;-62
2024/01/20 02:30:53;;;;;;;;;;;-0.20;99.90;;;;;;5023770;28;20588;-62
2024/01/20 02:33:18;;;;;;;;;;;-0.20;99.90;;;;;;5024220;28;19924;-62
2024/01/20 02:35:44;;;;;;;;;;;-0.20;99.90;;;;;;5024329;28;19914;-62
2024/01/20 02:38:09;;;;;;;;;;;-0.20;99.90;;;;;;5023413;28;20458;-62
2024/01/20 02:40:35;;;;;;;;;;;-0.20;99.90;;;;;;5023861;27;20037;-62
2024/01/20 02:43:00;;;;;;;;;;;-0.20;99.90;;;;;;5023958;28;20400;-62
2024/01/20 02:45:26;;;;;;;;;;;-0.20;99.90;;;;;;5024129;28;19913;-62
2024/01/20 02:47:54;;;;;;;;;;;-0.20;99.90;;;;;;5091177;28;19962;-62
2024/01/20 02:50:20;;;;;;;;;;;-0.20;99.90;;;;;;5023591;28;19913;-62
2024/01/20 02:52:45;;;;;;;;;;;-0.30;99.90;;;;;;5023919;28;19955;-62
2024/01/20 02:55:11;;;;;;;;;;;-0.30;99.90;;;;;;5048233;28;20523;-62
2024/01/20 02:57:36;;;;;;;;;;;-0.30;99.90;;;;;;5074555;28;19913;-62
2024/01/20 03:00:04;;;;;;;;;;;-0.30;99.90;;;;;;5054542;28;19919;-62
2024/01/20 03:02:29;;;;;;;;;;;-0.30;99.90;;;;;;5023733;28;19918;-62
2024/01/20 03:04:59;;;;;;;;;;;-0.30;99.90;;;;;;5023471;28;19917;-62
2024/01/20 03:07:24;;;;;;;;;;;-0.30;99.90;;;;;;5023116;28;19917;-62
2024/01/20 03:09:50;;;;;;;;;;;-0.30;99.90;;;;;;5022952;28;19913;-62
2024/01/20 03:12:15;;;;;;;;;;;-0.30;99.90;;;;;;5023387;28;19913;-62
2024/01/20 03:14:41;;;;;;;;;;;-0.30;99.90;;;;;;5022830;28;19909;-62
2024/01/20 03:17:06;;;;;;;;;;;-0.30;99.90;;;;;;5022486;28;19935;-62
2024/01/20 03:19:32;;;;;;;;;;;-0.30;99.90;;;;;;5015457;28;19928;-62
2024/01/20 03:21:57;;;;;;;;;;;-0.20;99.90;;;;;;5089526;28;20515;-62
2024/01/20 03:24:23;;;;;;;;;;;-0.30;99.90;;;;;;5022864;28;19959;-62
2024/01/20 03:26:49;;;;;;;;;;;-0.30;99.90;;;;;;5021857;28;20024;-62
2024/01/20 03:29:14;;;;;;;;;;;-0.30;99.90;;;;;;5022013;28;20359;-62
2024/01/20 03:31:40;;;;;;;;;;;-0.30;99.90;;;;;;5022587;28;19992;-62
2024/01/20 03:34:06;;;;;;;;;;;-0.30;99.90;;;;;;5022951;28;19948;-62
2024/01/20 03:36:31;;;;;;;;;;;-0.30;99.90;;;;;;5023106;28;19939;-63
2024/01/20 03:38:57;;;;;;;;;;;-0.30;99.90;;;;;;5022639;28;19909;-62
2024/01/20 03:41:22;;;;;;;;;;;-0.30;99.90;;;;;;5023020;28;20338;-62
2024/01/20 03:43:48;;;;;;;;;;;-0.30;99.90;;;;;;5022827;28;19974;-62
2024/01/20 03:46:16;;;;;;;;;;;-0.30;99.90;;;;;;5031202;28;19955;-62
2024/01/20 03:48:42;;;;;;;;;;;-0.30;99.90;;;;;;5022871;28;19921;-62
2024/01/20 03:51:08;;;;;;;;;;;-0.30;99.90;;;;;;5021874;28;20289;-62
2024/01/20 03:53:34;;;;;;;;;;;-0.30;99.90;;;;;;5077305;28;19924;-62
2024/01/20 03:56:00;;;;;;;;;;;-0.40;99.90;;;;;;5022668;28;19913;-62
2024/01/20 03:58:26;;;;;;;;;;;-0.30;99.90;;;;;;5063163;28;19924;-62
2024/01/20 04:00:51;;;;;;;;;;;-0.40;99.90;;;;;;5022375;28;20001;-62
2024/01/20 04:03:17;;;;;;;;;;;-0.40;99.90;;;;;;5022931;28;19964;-62
2024/01/20 04:05:42;;;;;;;;;;;-0.40;99.90;;;;;;5022840;28;20313;-62
2024/01/20 04:08:08;;;;;;;;;;;-0.40;99.90;;;;;;5022503;28;20464;-62
2024/01/20 04:10:33;;;;;;;;;;;-0.40;99.90;;;;;;5022470;28;19917;-62
2024/01/20 04:12:59;;;;;;;;;;;-0.40;99.90;;;;;;5025448;28;20048;-62
2024/01/20 04:15:24;;;;;;;;;;;-0.40;99.90;;;;;;5089797;28;19952;-62
2024/01/20 04:17:52;;;;;;;;;;;-0.40;99.90;;;;;;5021946;28;20006;-62
2024/01/20 04:20:18;;;;;;;;;;;-0.40;99.90;;;;;;5022273;28;19920;-62
2024/01/20 04:22:43;;;;;;;;;;;-0.40;99.90;;;;;;5021449;28;19910;-62
2024/01/20 04:25:09;;;;;;;;;;;-0.40;99.90;;;;;;5086945;28;19945;-62
2024/01/20 04:27:40;;;;;;;;;;;-0.40;99.90;;;;;;5022599;28;20270;-62
2024/01/20 04:30:09;;;;;;;;;;;-0.40;99.90;;;;;;5022093;28;20012;-62
2024/01/20 04:32:34;;;;;;;;;;;-0.50;99.90;;;;;;5022404;28;20440;-62
2024/01/20 04:35:00;;;;;;;;;;;-0.40;99.90;;;;;;5022494;28;19913;-62
2024/01/20 04:37:26;;;;;;;;;;;-0.40;99.90;;;;;;5022588;28;19914;-62
2024/01/20 04:39:51;;;;;;;;;;;-0.50;99.90;;;;;;5021857;28;19913;-63
2024/01/20 04:42:17;;;;;;;;;;;-0.50;99.90;;;;;;5022468;28;19920;-62
2024/01/20 04:44:42;;;;;;;;;;;-0.50;99.90;;;;;;5022129;28;19913;-62
2024/01/20 04:47:08;;;;;;;;;;;-0.50;99.90;;;;;;5007546;28;19959;-62
2024/01/20 04:49:33;;;;;;;;;;;-0.50;99.90;;;;;;5022308;28;19993;-62
2024/01/20 04:52:01;;;;;;;;;;;-0.50;99.90;;;;;;5021796;28;19913;-62
2024/01/20 04:54:30;;;;;;;;;;;-0.50;99.90;;;;;;5022107;28;19913;-62
2024/01/20 04:56:56;;;;;;;;;;;-0.50;99.90;;;;;;5021951;28;19924;-62
2024/01/20 04:59:21;;;;;;;;;;;-0.50;99.90;;;;;;5021868;28;19917;-62
2024/01/20 05:01:48;;;;;;;;;;;-0.50;99.90;;;;;;5024153;28;19917;-62
2024/01/20 05:04:14;;;;;;;;;;;-0.50;99.90;;;;;;5025718;28;20368;-62
2024/01/20 05:06:39;;;;;;;;;;;-0.50;99.90;;;;;;5025249;28;19916;-62
2024/01/20 05:09:05;;;;;;;;;;;-0.50;99.90;;;;;;5025206;28;19917;-62
2024/01/20 05:11:31;;;;;;;;;;;-0.50;99.90;;;;;;5025470;28;19965;-62
2024/01/20 05:13:56;;;;;;;;;;;-0.50;99.90;;;;;;5025100;28;19986;-62
2024/01/20 05:16:22;;;;;;;;;;;-0.50;99.90;;;;;;5025537;28;19920;-62
2024/01/20 05:18:48;;;;;;;;;;;-0.50;99.90;;;;;;5024863;28;19917;-62
2024/01/20 05:21:14;;;;;;;;;;;-0.50;99.90;;;;;;5025356;28;20394;-62
2024/01/20 05:23:40;;;;;;;;;;;-0.50;99.90;;;;;;5025379;28;19970;-62
2024/01/20 05:26:05;;;;;;;;;;;-0.50;99.90;;;;;;5024847;28;20389;-62
2024/01/20 05:28:31;;;;;;;;;;;-0.50;99.90;;;;;;5050484;28;20343;-62
2024/01/20 05:30:56;;;;;;;;;;;-0.50;99.90;;;;;;5032760;28;19912;-62
2024/01/20 05:33:22;;;;;;;;;;;-0.60;99.90;;;;;;5024972;28;19917;-62
2024/01/20 05:35:47;;;;;;;;;;;-0.60;99.90;;;;;;5025077;28;20326;-62
2024/01/20 05:38:14;;;;;;;;;;;-0.60;99.90;;;;;;5016337;28;21773;-62
2024/01/20 05:40:40;;;;;;;;;;;-0.60;99.90;;;;;;5024953;28;19944;-62
2024/01/20 05:43:06;;;;;;;;;;;-0.60;99.90;;;;;;5024974;28;19913;-62
2024/01/20 05:45:32;;;;;;;;;;;-0.60;99.90;;;;;;5024956;28;19913;-62
2024/01/20 05:47:57;;;;;;;;;;;-0.60;99.90;;;;;;5024092;28;19920;-61
2024/01/20 05:50:23;;;;;;;;;;;-0.60;99.90;;;;;;5024806;28;19913;-61
2024/01/20 05:52:50;;;;;;;;;;;-0.60;99.90;;;;;;5024863;28;19913;-61
2024/01/20 05:55:16;;;;;;;;;;;-0.60;99.90;;;;;;5016871;28;19913;-61
2024/01/20 05:57:41;;;;;;;;;;;-0.60;99.90;;;;;;5032989;27;20008;-61
2024/01/20 06:00:09;;;;;;;;;;;-0.60;99.90;;;;;;5024212;28;20013;-62
2024/01/20 06:02:35;;;;;;;;;;;-0.60;99.90;;;;;;5024188;28;19920;-62
2024/01/20 06:05:01;;;;;;;;;;;-0.60;99.90;;;;;;5090733;28;20016;-62
2024/01/20 06:07:26;;;;;;;;;;;-0.60;99.90;;;;;;5024503;28;19921;-62
2024/01/20 06:09:52;;;;;;;;;;;-0.60;99.90;;;;;;5024070;28;19941;-62
2024/01/20 06:12:17;;;;;;;;;;;-0.60;99.90;;;;;;5023605;28;19909;-62
2024/01/20 06:14:44;;;;;;;;;;;-0.70;99.90;;;;;;5024456;28;20013;-61
2024/01/20 06:17:09;;;;;;;;;;;-0.60;99.90;;;;;;5023761;28;20873;-62
2024/01/20 06:19:35;;;;;;;;;;;-0.70;99.90;;;;;;5044585;28;19924;-62
2024/01/20 06:22:00;;;;;;;;;;;-0.70;99.90;;;;;;5023894;28;19924;-62
2024/01/20 06:24:26;;;;;;;;;;;-0.60;99.90;;;;;;5024386;28;20440;-62
2024/01/20 06:26:51;;;;;;;;;;;-0.70;99.90;;;;;;5023988;28;20032;-62
2024/01/20 06:29:17;;;;;;;;;;;-0.70;99.90;;;;;;5024022;28;19917;-61
2024/01/20 06:31:42;;;;;;;;;;;-0.70;99.90;;;;;;5023864;28;19996;-62
2024/01/20 06:34:08;;;;;;;;;;;-0.70;99.90;;;;;;5023881;28;19921;-62
2024/01/20 06:36:33;;;;;;;;;;;-0.70;99.90;;;;;;5024321;28;19920;-62
2024/01/20 06:38:59;;;;;;;;;;;-0.70;99.90;;;;;;5023895;28;20029;-62
2024/01/20 06:41:24;;;;;;;;;;;-0.70;99.90;;;;;;5023981;28;19920;-62
2024/01/20 06:43:50;;;;;;;;;;;-0.70;99.90;;;;;;5023918;28;19921;-62
2024/01/20 06:46:15;;;;;;;;;;;-0.70;99.90;;;;;;5023867;28;19913;-62
2024/01/20 06:48:41;;;;;;;;;;;-0.70;99.90;;;;;;5023815;28;19920;-62
2024/01/20 06:51:06;;;;;;;;;;;-0.70;99.90;;;;;;5023419;28;19920;-62
2024/01/20 06:53:32;;;;;;;;;;;-0.70;99.90;;;;;;5023851;28;19909;-62
2024/01/20 06:55:58;;;;;;;;;;;-0.70;99.90;;;;;;5023700;28;19919;-61
2024/01/20 06:58:24;;;;;;;;;;;-0.70;99.90;;;;;;5028459;28;19920;-62
2024/01/20 07:00:50;;;;;;;;;;;-0.70;99.90;;;;;;5027655;28;19913;-62
2024/01/20 07:03:16;;;;;;;;;;;-0.80;99.90;;;;;;5023816;28;20004;-62
2024/01/20 07:05:41;;;;;;;;;;;-0.80;99.90;;;;;;5023672;28;20000;-62
2024/01/20 07:08:08;;;;;;;;;;;-0.80;99.90;;;;;;5023343;28;19921;-62
2024/01/20 07:10:34;;;;;;;;;;;-0.80;99.90;;;;;;5023296;28;20052;-62
2024/01/20 07:12:59;;;;;;;;;;;-0.80;99.90;;;;;;5050109;28;20535;-62
2024/01/20 07:15:25;;;;;;;;;;;-0.80;99.90;;;;;;5030200;28;19920;-62
2024/01/20 07:17:56;;;;;;;;;;;-0.80;99.90;;;;;;5023120;28;19913;-62
2024/01/20 07:20:22;;;;;;;;;;;-0.80;99.90;;;;;;5015840;28;19913;-62
2024/01/20 07:22:49;;;;;;;;;;;-0.80;99.90;;;;;;5022946;28;19953;-62
2024/01/20 07:25:15;;;;;;;;;;;-0.80;99.90;;;;;;5030120;28;20270;-62
2024/01/20 07:27:41;;;;;;;;;;;-0.80;99.90;;;;;;5023342;28;20036;-62
2024/01/20 07:30:07;;;;;;;;;;;-0.80;99.90;;;;;;5024912;28;20028;-62
2024/01/20 07:32:32;;;;;;;;;;;-0.80;99.90;;;;;;5036805;28;19920;-62
2024/01/20 07:34:58;;;;;;;;;;;-0.80;99.90;;;;;;5023204;28;19914;-62
2024/01/20 07:37:24;;;;;;;;;;;-0.80;99.90;;;;;;5023161;28;19913;-62
2024/01/20 07:39:49;;;;;;;;;;;-0.80;99.90;;;;;;5022897;28;19913;-62
2024/01/20 07:42:15;;;;;;;;;;;-0.80;99.90;;;;;;5022705;28;19984;-62
2024/01/20 07:44:40;;;;;;;;;;;-0.80;99.90;;;;;;5022938;28;19913;-62
2024/01/20 07:47:06;;;;;;;;;;;-0.80;99.90;;;;;;5022742;28;20456;-62
2024/01/20 07:49:32;;;;;;;;;;;-0.80;99.90;;;;;;5023039;28;19924;-62
2024/01/20 07:51:57;;;;;;;;;;;-0.80;99.90;;;;;;5031269;28;19913;-62
2024/01/20 07:54:23;;;;;;;;;;;-0.80;99.90;;;;;;5026912;28;20000;-62
2024/01/20 07:56:48;;;;;;;;;;;-0.80;99.90;;;;;;5022863;28;20494;-62
2024/01/20 07:59:16;;;;;;;;;;;-0.80;99.90;;;;;;5024939;28;19958;-62
2024/01/20 08:01:41;;;;;;;;;;;-0.80;99.90;;;;;;5026540;28;20386;-62
2024/01/20 08:04:07;;;;;;;;;;;-0.80;99.90;;;;;;5021893;28;19921;-62
2024/01/20 08:06:35;;;;;;;;;;;-0.80;99.90;;;;;;5023101;28;20410;-62
2024/01/20 08:09:00;;;;;;;;;;;-0.80;99.90;;;;;;5023098;28;20007;-62
2024/01/20 08:11:26;;;;;;;;;;;-0.80;99.90;;;;;;5021361;28;20028;-62
2024/01/20 08:13:51;;;;;;;;;;;-0.80;99.90;;;;;;5021191;28;20680;-62
2024/01/20 08:16:17;;;;;;;;;;;-0.80;99.90;;;;;;5046612;28;19913;-61
2024/01/20 08:18:42;;;;;;;;;;;-0.80;99.90;;;;;;5046571;28;19910;-62
2024/01/20 08:21:08;;;;;;;;;;;-0.80;99.90;;;;;;5021545;28;20350;-62
2024/01/20 08:23:33;;;;;;;;;;;-0.80;99.90;;;;;;5022036;28;19970;-62
2024/01/20 08:25:59;;;;;;;;;;;-0.70;99.90;;;;;;5022151;28;19917;-62
2024/01/20 08:28:25;;;;;;;;;;;-0.80;99.90;;;;;;5022654;28;19957;-62
2024/01/20 08:30:50;;;;;;;;;;;-0.80;99.90;;;;;;5022414;28;19924;-62
2024/01/20 08:33:16;;;;;;;;;;;-0.80;99.90;;;;;;5030218;28;20373;-62
2024/01/20 08:35:41;;;;;;;;;;;-0.80;99.90;;;;;;5022155;28;19913;-62
2024/01/20 08:38:07;;;;;;;;;;;-0.80;99.90;;;;;;5022171;28;19984;-62
2024/01/20 08:40:32;;;;;;;;;;;-0.80;99.90;;;;;;5022229;28;19913;-62
2024/01/20 08:42:58;;;;;;;;;;;-0.80;99.90;;;;;;5060126;28;19973;-62
2024/01/20 08:45:23;;;;;;;;;;;-0.80;99.90;;;;;;5022378;28;20358;-61
2024/01/20 08:47:49;;;;;;;;;;;-0.80;99.90;;;;;;5022328;28;19962;-62
2024/01/20 08:50:14;;;;;;;;;;;-0.80;99.90;;;;;;5021798;28;20526;-62
2024/01/20 08:52:40;;;;;;;;;;;-0.80;99.90;;;;;;5021939;28;19924;-62
2024/01/20 08:55:06;;;;;;;;;;;-0.70;99.90;;;;;;5029950;28;20526;-62
2024/01/20 08:57:33;;;;;;;;;;;-0.80;99.90;;;;;;5021852;28;19917;-62
2024/01/20 08:59:59;;;;;;;;;;;-0.80;99.90;;;;;;5022589;28;19924;-62
2024/01/20 09:02:24;;;;;;;;;;;-0.80;99.90;;;;;;5037276;28;19921;-62
2024/01/20 09:04:50;;;;;;;;;;;-0.70;99.90;;;;;;5022132;28;20417;-62
2024/01/20 09:07:15;;;;;;;;;;;-0.70;99.90;;;;;;5004806;28;19917;-62
2024/01/20 09:09:41;;;;;;;;;;;-0.70;99.90;;;;;;5021837;28;19940;-62
2024/01/20 09:12:07;;;;;;;;;;;-0.70;99.90;;;;;;5018101;28;19913;-62
2024/01/20 09:14:32;;;;;;;;;;;-0.70;99.90;;;;;;5019007;28;19962;-62
2024/01/20 09:16:58;;;;;;;;;;;-0.70;99.90;;;;;;5028703;28;19920;-62
2024/01/20 09:19:24;;;;;;;;;;;-0.70;99.90;;;;;;5020611;28;20382;-62
2024/01/20 09:21:49;;;;;;;;;;;-0.60;99.90;;;;;;5020522;28;19913;-62
2024/01/20 09:24:15;;;;;;;;;;;-0.60;99.90;;;;;;5028304;28;20016;-62
2024/01/20 09:26:40;;;;;;;;;;;-0.60;99.90;;;;;;5020727;28;19918;-62
2024/01/20 09:29:06;;;;;;;;;;;-0.60;99.90;;;;;;5019922;28;19921;-62
2024/01/20 09:31:32;;;;;;;;;;;-0.60;99.90;;;;;;5020258;28;20007;-62
2024/01/20 09:33:57;;;;;;;;;;;-0.60;99.90;;;;;;5020615;28;20258;-62
2024/01/20 09:36:23;;;;;;;;;;;-0.60;99.90;;;;;;5020604;28;19960;-62
2024/01/20 09:38:49;;;;;;;;;;;-0.50;99.90;;;;;;5020259;28;19913;-62
2024/01/20 09:41:14;;;;;;;;;;;-0.50;99.90;;;;;;5019895;28;19966;-62
2024/01/20 09:43:40;;;;;;;;;;;-0.50;99.90;;;;;;5020517;28;19914;-62
2024/01/20 09:46:06;;;;;;;;;;;-0.50;99.90;;;;;;5020139;28;19913;-62
2024/01/20 09:48:32;;;;;;;;;;;-0.50;99.90;;;;;;5004418;28;20021;-62
2024/01/20 09:50:57;;;;;;;;;;;-0.40;99.90;;;;;;5039583;28;19912;-63
2024/01/20 09:53:24;;;;;;;;;;;-0.40;99.90;;;;;;5023815;28;19968;-62
2024/01/20 09:55:49;;;;;;;;;;;-0.40;99.90;;;;;;5039482;28;19913;-62
2024/01/20 09:58:16;;;;;;;;;;;-0.30;99.90;;;;;;5031861;28;20300;-62
2024/01/20 10:00:42;;;;;;;;;;;-0.30;99.90;;;;;;5023520;28;20333;-62
2024/01/20 10:03:08;;;;;;;;;;;-0.30;99.90;;;;;;5023442;28;19909;-62
2024/01/20 10:05:34;;;;;;;;;;;-0.20;99.90;;;;;;5026627;28;20554;-62
2024/01/20 10:08:00;;;;;;;;;;;-0.10;99.90;;;;;;5024753;28;19917;-62
2024/01/20 10:10:25;;;;;;;;;;;-0.10;99.90;;;;;;5042534;28;19921;-62
2024/01/20 10:12:52;;;;;;;;;;;0.00;99.90;;;;;;5031507;28;20346;-62
2024/01/20 10:15:27;;;;;;;;;;;0.00;99.90;;;;;;5023063;28;20032;-62
2024/01/20 10:17:54;;;;;;;;;;;0.10;99.90;;;;;;5031615;28;20547;-62
2024/01/20 10:20:36;;;;;;;;;;;0.20;99.90;;;;;;5015469;28;19913;-62
2024/01/20 10:23:02;;;;;;;;;;;0.20;99.90;;;;;;5042170;28;20552;-62
2024/01/20 10:25:28;;;;;;;;;;;0.20;99.90;;;;;;5023441;28;20256;-62
2024/01/20 10:27:54;;;;;;;;;;;0.20;99.90;;;;;;5023143;28;19917;-62
2024/01/20 10:30:24;;;;;;;;;;;0.30;99.90;;;;;;5023041;28;20363;-62
2024/01/20 10:32:50;;;;;;;;;;;0.20;99.90;;;;;;5023248;28;19913;-62
2024/01/20 10:35:16;;;;;;;;;;;0.30;99.90;;;;;;5018603;28;19920;-62
2024/01/20 10:37:44;;;;;;;;;;;0.30;99.90;;;;;;5023032;28;19919;-62
2024/01/20 10:40:13;;;;;;;;;;;0.40;99.90;;;;;;5022520;28;19917;-62
2024/01/20 10:42:55;;;;;;;;;;;0.40;99.90;;;;;;5038116;28;20343;-62
2024/01/20 10:45:22;;;;;;;;;;;0.40;99.90;;;;;;5014915;28;19913;-62
2024/01/20 10:47:47;;;;;;;;;;;0.50;99.90;;;;;;5022764;28;20520;-61
2024/01/20 10:50:13;;;;;;;;;;;0.50;99.90;;;;;;5022539;28;19924;-62
2024/01/20 10:52:38;;;;;;;;;;;0.60;99.90;;;;;;5022509;28;20327;-62
2024/01/20 10:55:07;;;;;;;;;;;0.60;99.90;;;;;;5046401;28;19917;-62
2024/01/20 10:57:33;;;;;;;;;;;0.70;99.90;;;;;;5022130;28;19917;-62
2024/01/20 10:59:59;;;;;;;;;;;0.70;99.90;;;;;;5017116;28;20749;-62
2024/01/20 11:02:25;;;;;;;;;;;0.80;99.90;;;;;;5022229;28;19921;-62
2024/01/20 11:04:51;;;;;;;;;;;0.80;99.90;;;;;;5022220;28;19913;-62
2024/01/20 11:07:23;;;;;;;;;;;0.80;99.90;;;;;;5021387;28;20394;-62
2024/01/20 11:09:58;;;;;;;;;;;0.90;99.90;;;;;;5022575;28;20624;-62
2024/01/20 11:12:25;;;;;;;;;;;1.00;99.90;;;;;;5015000;28;20000;-62
2024/01/20 11:14:54;;;;;;;;;;;1.00;99.90;;;;;;5022633;28;19917;-62
2024/01/20 11:17:20;;;;;;;;;;;1.00;99.90;;;;;;5014575;28;20533;-62
2024/01/20 11:19:46;;;;;;;;;;;1.00;99.90;;;;;;5022745;28;20296;-62
2024/01/20 11:22:31;;;;;;;;;;;1.00;99.90;;;;;;5021893;28;19917;-62
2024/01/20 11:24:56;;;;;;;;;;;1.00;99.90;;;;;;5019643;28;20662;-62
2024/01/20 11:27:22;;;;;;;;;;;1.00;99.90;;;;;;5023323;28;19929;-62
2024/01/20 11:29:48;;;;;;;;;;;0.90;99.90;;;;;;5022788;28;19970;-62
2024/01/20 11:32:13;;;;;;;;;;;1.00;99.90;;;;;;5022213;28;20488;-61
2024/01/20 11:34:40;;;;;;;;;;;1.10;99.90;;;;;;5022803;28;19939;-62
2024/01/20 11:37:07;;;;;;;;;;;1.10;99.90;;;;;;5021945;28;20341;-62
2024/01/20 11:39:32;;;;;;;;;;;1.10;99.90;;;;;;5022473;28;19913;-62
2024/01/20 11:41:59;;;;;;;;;;;1.20;99.90;;;;;;5062086;28;19942;-62
2024/01/20 11:44:25;;;;;;;;;;;1.20;99.90;;;;;;5022588;28;20020;-62
2024/01/20 11:46:50;;;;;;;;;;;1.20;99.90;;;;;;5022456;28;20501;-62
2024/01/20 11:49:16;;;;;;;;;;;1.20;99.90;;;;;;5022170;28;20345;-62
2024/01/20 11:51:41;;;;;;;;;;;1.20;99.90;;;;;;5022228;28;19965;-62
2024/01/20 11:54:07;;;;;;;;;;;1.20;99.90;;;;;;5021811;28;19994;-62
2024/01/20 11:56:32;;;;;;;;;;;1.20;99.90;;;;;;5022610;28;19977;-62
2024/01/20 11:58:58;;;;;;;;;;;1.20;99.90;;;;;;5021937;28;20607;-62
2024/01/20 12:01:23;;;;;;;;;;;1.20;99.90;;;;;;5024301;28;19913;-62
2024/01/20 12:03:49;;;;;;;;;;;1.20;99.90;;;;;;5022287;28;19913;-62
2024/01/20 12:06:14;;;;;;;;;;;1.20;99.90;;;;;;5003790;28;19917;-62
2024/01/20 12:08:41;;;;;;;;;;;1.20;99.90;;;;;;5021773;28;19921;-62
2024/01/20 12:11:07;;;;;;;;;;;1.20;99.90;;;;;;5020903;28;19965;-62
2024/01/20 12:13:35;;;;;;;;;;;1.30;99.90;;;;;;5054624;28;19925;-62
2024/01/20 12:16:01;;;;;;;;;;;1.20;99.90;;;;;;5021842;28;19973;-62
2024/01/20 12:18:27;;;;;;;;;;;1.20;99.90;;;;;;5022119;28;19913;-62
2024/01/20 12:20:52;;;;;;;;;;;1.20;99.90;;;;;;5022100;28;19963;-62
2024/01/20 12:23:21;;;;;;;;;;;1.30;99.90;;;;;;5022140;28;19996;-62
2024/01/20 12:25:50;;;;;;;;;;;1.30;99.90;;;;;;5022617;28;20392;-62
2024/01/20 12:28:16;;;;;;;;;;;1.30;99.90;;;;;;5021957;28;20301;-62
2024/01/20 12:30:42;;;;;;;;;;;1.30;99.90;;;;;;5073571;28;19921;-62
2024/01/20 12:33:07;;;;;;;;;;;1.30;99.90;;;;;;5021439;28;20104;-62
2024/01/20 12:35:33;;;;;;;;;;;1.30;99.90;;;;;;5020789;28;20508;-62
2024/01/20 12:37:58;;;;;;;;;;;1.30;99.90;;;;;;5020891;28;19921;-62
2024/01/20 12:40:24;;;;;;;;;;;1.30;99.90;;;;;;5029407;28;19913;-62
2024/01/20 12:42:50;;;;;;;;;;;1.30;99.90;;;;;;5022203;28;20460;-61
2024/01/20 12:45:15;;;;;;;;;;;1.30;99.90;;;;;;5049661;28;19918;-62
2024/01/20 12:47:41;;;;;;;;;;;1.40;99.90;;;;;;5022145;28;20696;-62
2024/01/20 12:50:07;;;;;;;;;;;1.40;99.90;;;;;;5022203;28;19942;-62
2024/01/20 12:52:33;;;;;;;;;;;1.30;99.90;;;;;;5027047;28;19976;-62
2024/01/20 12:54:58;;;;;;;;;;;1.30;99.90;;;;;;5021940;28;19914;-62
2024/01/20 12:57:24;;;;;;;;;;;1.40;99.90;;;;;;5022388;28;19914;-65
2024/01/20 12:59:49;;;;;;;;;;;1.40;99.90;;;;;;5022177;28;19919;-62
2024/01/20 13:02:15;;;;;;;;;;;1.40;99.90;;;;;;5022118;28;19924;-62
2024/01/20 13:04:42;;;;;;;;;;;1.40;99.90;;;;;;5047496;28;19920;-62
2024/01/20 13:07:08;;;;;;;;;;;1.40;99.90;;;;;;5022167;28;19924;-62
2024/01/20 13:09:33;;;;;;;;;;;1.40;99.90;;;;;;5021896;28;19917;-62
2024/01/20 13:11:59;;;;;;;;;;;1.50;99.90;;;;;;5021243;28;19941;-62
2024/01/20 13:14:24;;;;;;;;;;;1.40;99.90;;;;;;5022191;28;20738;-62
2024/01/20 13:16:50;;;;;;;;;;;1.40;99.90;;;;;;5022168;28;20314;-62
2024/01/20 13:19:15;;;;;;;;;;;1.40;99.90;;;;;;5021465;28;19924;-62
2024/01/20 13:21:41;;;;;;;;;;;1.40;99.90;;;;;;5033553;28;19913;-62
2024/01/20 13:24:06;;;;;;;;;;;1.40;99.90;;;;;;5025168;28;19970;-62
2024/01/20 13:26:32;;;;;;;;;;;1.40;99.90;;;;;;5025512;28;19958;-62
2024/01/20 13:28:58;;;;;;;;;;;1.40;99.90;;;;;;5024548;28;19921;-62
2024/01/20 13:31:23;;;;;;;;;;;1.40;99.90;;;;;;5025058;28;19969;-62
2024/01/20 13:33:49;;;;;;;;;;;1.40;99.90;;;;;;5025419;28;20322;-62
2024/01/20 13:36:15;;;;;;;;;;;1.40;99.90;;;;;;5024896;28;20357;-62
2024/01/20 13:38:41;;;;;;;;;;;1.40;99.90;;;;;;5044868;28;19947;-62
2024/01/20 13:41:06;;;;;;;;;;;1.40;99.90;;;;;;5024612;28;19921;-62
2024/01/20 13:43:32;;;;;;;;;;;1.40;99.90;;;;;;5024898;28;19965;-62
2024/01/20 13:45:58;;;;;;;;;;;1.30;99.90;;;;;;5024687;28;20451;-62
2024/01/20 13:48:23;;;;;;;;;;;1.30;99.90;;;;;;5024600;28;19917;-62
2024/01/20 13:50:49;;;;;;;;;;;1.40;99.90;;;;;;5024695;28;19913;-62
2024/01/20 13:53:15;;;;;;;;;;;1.40;99.90;;;;;;5024397;28;19974;-62
2024/01/20 13:55:40;;;;;;;;;;;1.40;99.90;;;;;;5030795;28;19955;-62
2024/01/20 13:58:06;;;;;;;;;;;1.40;99.90;;;;;;5026631;28;20023;-62
2024/01/20 14:00:32;;;;;;;;;;;1.30;99.90;;;;;;5037398;28;19920;-62
2024/01/20 14:02:57;;;;;;;;;;;1.40;99.90;;;;;;5028352;28;19913;-62
2024/01/20 14:05:23;;;;;;;;;;;1.40;99.90;;;;;;5024735;28;20268;-62
2024/01/20 14:07:48;;;;;;;;;;;1.30;99.90;;;;;;5024383;28;19952;-62
2024/01/20 14:10:14;;;;;;;;;;;1.30;99.90;;;;;;5023879;28;20004;-62
2024/01/20 14:12:40;;;;;;;;;;;1.30;99.90;;;;;;5022938;28;19913;-62